Time;durP1;ratioP1;P1;durP2;ratioP2;P2;SDS_P1;SDS_P2;PMS_P1;PMS_P2;Temp;Humidity;BMP_temperature;BMP_pressure;BME280_temperature;BME280_humidity;BME280_pressure;Samples;Min_cycle;Max_cycle;Signal;HPM_P1;HPM_P2
2021/08/19 00:00:06;;;;;;;13.73;7.00;;;;;;;;;;4346660;33;20160;-78
2021/08/19 00:02:37;;;;;;;8.75;6.50;;;;;;;;;;4358964;33;20158;-78
2021/08/19 00:05:02;;;;;;;12.50;6.85;;;;;;;;;;4347763;33;20159;-78
2021/08/19 00:07:37;;;;;;;11.25;7.60;;;;;;;;;;4346294;33;20244;-78
2021/08/19 00:10:03;;;;;;;12.93;7.47;;;;;;;;;;4346459;33;20185;-78
2021/08/19 00:12:38;;;;;;;12.10;8.05;;;;;;;;;;4338245;33;20155;-77
2021/08/19 00:15:06;;;;;;;15.13;7.70;;;;;;;;;;4344435;33;20166;-77
2021/08/19 00:17:33;;;;;;;13.43;7.12;;;;;;;;;;4331771;33;20183;-77
2021/08/19 00:20:10;;;;;;;15.50;7.18;;;;;;;;;;4331683;33;20183;-78
2021/08/19 00:22:43;;;;;;;14.75;8.18;;;;;;;;;;4332147;33;20217;-78
2021/08/19 00:25:24;;;;;;;14.25;6.55;;;;;;;;;;4332939;33;20186;-78
2021/08/19 00:28:08;;;;;;;13.25;7.30;;;;;;;;;;4332152;33;20159;-78
2021/08/19 00:30:34;;;;;;;13.07;7.80;;;;;;;;;;4331694;33;20159;-77
2021/08/19 00:33:15;;;;;;;12.07;7.45;;;;;;;;;;4345696;33;20587;-78
2021/08/19 00:35:40;;;;;;;10.48;6.60;;;;;;;;;;4331749;33;20152;-78
2021/08/19 00:38:15;;;;;;;11.35;6.57;;;;;;;;;;4332059;33;20183;-77
2021/08/19 00:40:40;;;;;;;13.88;7.62;;;;;;;;;;4331571;33;20163;-78
2021/08/19 00:43:06;;;;;;;11.60;7.20;;;;;;;;;;4331751;33;20210;-78
2021/08/19 00:45:32;;;;;;;15.48;8.85;;;;;;;;;;4331666;33;20167;-78
2021/08/19 00:47:58;;;;;;;15.40;8.80;;;;;;;;;;4331689;33;20195;-78
2021/08/19 00:50:23;;;;;;;16.80;8.90;;;;;;;;;;4332587;33;20178;-78
2021/08/19 00:52:49;;;;;;;12.18;7.87;;;;;;;;;;4334679;33;20151;-78
2021/08/19 00:55:17;;;;;;;13.13;8.38;;;;;;;;;;4338545;33;20193;-78
2021/08/19 00:57:45;;;;;;;12.52;7.90;;;;;;;;;;4349000;33;20185;-78
2021/08/19 01:00:21;;;;;;;9.23;7.15;;;;;;;;;;4362481;32;20139;-78
2021/08/19 01:02:47;;;;;;;11.70;7.12;;;;;;;;;;4363283;32;20119;-78
2021/08/19 01:05:38;;;;;;;10.77;7.50;;;;;;;;;;4348997;33;20500;-78
2021/08/19 01:08:19;;;;;;;9.73;7.07;;;;;;;;;;4362891;32;20564;-78
2021/08/19 01:10:52;;;;;;;10.90;7.43;;;;;;;;;;4361669;32;20151;-78
2021/08/19 01:13:40;;;;;;;;;;;;;;;;;;;;;
2021/08/19 01:16:06;;;;;;;11.65;7.30;;;;;;;;;;4348109;33;20151;-78
2021/08/19 01:18:42;;;;;;;11.80;7.47;;;;;;;;;;4334161;33;20202;-78
2021/08/19 01:21:09;;;;;;;15.65;7.37;;;;;;;;;;4335429;33;20957;-78
2021/08/19 01:23:44;;;;;;;12.43;7.72;;;;;;;;;;4348668;33;20175;-78
2021/08/19 01:26:19;;;;;;;12.07;7.20;;;;;;;;;;4360937;32;20514;-78
2021/08/19 01:28:48;;;;;;;14.23;7.62;;;;;;;;;;4348068;33;20250;-78
2021/08/19 01:31:15;;;;;;;12.52;7.53;;;;;;;;;;4348519;33;20155;-78
2021/08/19 01:33:50;;;;;;;14.82;8.57;;;;;;;;;;4348525;33;20189;-78
2021/08/19 01:36:47;;;;;;;13.27;7.65;;;;;;;;;;4348431;33;20174;-78
2021/08/19 01:39:03;;;;;;;12.30;6.90;;;;;;;;;;4360221;33;20246;-78
2021/08/19 01:41:29;;;;;;;14.52;8.25;;;;;;;;;;4348483;33;20163;-78
2021/08/19 01:43:54;;;;;;;13.35;8.02;;;;;;;;;;4346502;33;20218;-78
2021/08/19 01:46:20;;;;;;;13.30;8.00;;;;;;;;;;4334022;33;20151;-78
2021/08/19 01:48:55;;;;;;;15.07;9.10;;;;;;;;;;4333888;33;20152;-78
2021/08/19 01:51:33;;;;;;;13.38;7.95;;;;;;;;;;4333870;33;20155;-78
2021/08/19 01:53:59;;;;;;;13.57;7.40;;;;;;;;;;4333098;33;20627;-78
2021/08/19 01:56:24;;;;;;;13.75;7.85;;;;;;;;;;4333464;33;20159;-78
2021/08/19 01:58:55;;;;;;;15.40;8.25;;;;;;;;;;4333390;33;20206;-78
2021/08/19 02:01:31;;;;;;;14.85;8.45;;;;;;;;;;4333629;33;20593;-78
2021/08/19 02:04:02;;;;;;;14.63;8.60;;;;;;;;;;4334066;33;20163;-78
2021/08/19 02:06:30;;;;;;;15.30;8.70;;;;;;;;;;4334071;33;20611;-77
2021/08/19 02:09:04;;;;;;;16.92;8.52;;;;;;;;;;4333135;33;20163;-78
2021/08/19 02:12:05;;;;;;;15.20;8.48;;;;;;;;;;4333815;33;20155;-79
2021/08/19 02:14:30;;;;;;;15.15;8.85;;;;;;;;;;4347540;33;20598;-79
2021/08/19 02:17:07;;;;;;;12.98;8.25;;;;;;;;;;4333823;33;20609;-79
2021/08/19 02:19:32;;;;;;;15.73;8.52;;;;;;;;;;4333967;33;20226;-79
2021/08/19 02:22:01;;;;;;;17.05;8.88;;;;;;;;;;4333711;33;20218;-79
2021/08/19 02:24:26;;;;;;;18.67;9.68;;;;;;;;;;4333272;33;20616;-79
2021/08/19 02:26:51;;;;;;;16.05;8.98;;;;;;;;;;4333245;33;20190;-79
2021/08/19 02:29:17;;;;;;;17.23;8.95;;;;;;;;;;4333832;33;20266;-79
2021/08/19 02:31:51;;;;;;;15.65;9.05;;;;;;;;;;4332985;33;20183;-78
2021/08/19 02:34:43;;;;;;;18.00;8.10;;;;;;;;;;4330905;33;20238;-78
2021/08/19 02:37:08;;;;;;;15.00;9.05;;;;;;;;;;4329961;33;20245;-78
2021/08/19 02:39:34;;;;;;;17.70;9.00;;;;;;;;;;4330595;33;20172;-78
2021/08/19 02:42:06;;;;;;;17.40;9.35;;;;;;;;;;4330771;33;20234;-78
2021/08/19 02:44:34;;;;;;;20.45;9.52;;;;;;;;;;4330594;33;20199;-78
2021/08/19 02:47:08;;;;;;;16.20;9.43;;;;;;;;;;4330358;33;20222;-79
2021/08/19 02:49:41;;;;;;;16.02;9.43;;;;;;;;;;4330957;33;20255;-78
2021/08/19 02:52:06;;;;;;;16.30;9.00;;;;;;;;;;4330878;33;20163;-79
2021/08/19 02:54:50;;;;;;;;;;;;;;;;;;;;;
2021/08/19 02:57:19;;;;;;;15.77;9.68;;;;;;;;;;4332372;33;20143;-79
2021/08/19 02:59:44;;;;;;;19.42;9.70;;;;;;;;;;4349172;33;20501;-79
2021/08/19 03:02:12;;;;;;;18.60;10.43;;;;;;;;;;4345357;33;20159;-79
2021/08/19 03:04:37;;;;;;;19.83;9.38;;;;;;;;;;4345023;33;20860;-79
2021/08/19 03:07:03;;;;;;;17.05;9.48;;;;;;;;;;4344987;33;20156;-78
2021/08/19 03:09:28;;;;;;;18.55;10.27;;;;;;;;;;4344800;33;20182;-79
2021/08/19 03:11:59;;;;;;;19.77;9.48;;;;;;;;;;4332549;33;20148;-79
2021/08/19 03:14:24;;;;;;;18.48;9.40;;;;;;;;;;4330206;33;20151;-79
2021/08/19 03:16:49;;;;;;;19.10;10.25;;;;;;;;;;4330256;33;20513;-79
2021/08/19 03:19:15;;;;;;;19.33;10.68;;;;;;;;;;4330339;33;20467;-78
2021/08/19 03:21:40;;;;;;;19.60;10.68;;;;;;;;;;4329884;33;20148;-79
2021/08/19 03:24:06;;;;;;;16.62;10.27;;;;;;;;;;4343138;33;20185;-79
2021/08/19 03:26:32;;;;;;;16.83;9.95;;;;;;;;;;4344505;33;20532;-79
2021/08/19 03:29:08;;;;;;;19.30;10.88;;;;;;;;;;4344725;33;20667;-78
2021/08/19 03:31:33;;;;;;;18.48;10.32;;;;;;;;;;4345108;33;20186;-78
2021/08/19 03:33:59;;;;;;;19.80;9.25;;;;;;;;;;4346387;33;20170;-79
2021/08/19 03:36:25;;;;;;;17.95;9.82;;;;;;;;;;4346910;33;20201;-79
2021/08/19 03:38:50;;;;;;;17.83;10.00;;;;;;;;;;4347025;33;20466;-79
2021/08/19 03:41:22;;;;;;;17.90;9.27;;;;;;;;;;4344442;33;20170;-78
2021/08/19 03:44:06;;;;;;;16.33;9.23;;;;;;;;;;4332932;33;20148;-79
2021/08/19 03:46:41;;;;;;;18.08;9.40;;;;;;;;;;4332607;33;20139;-78
2021/08/19 03:49:10;;;;;;;15.90;8.77;;;;;;;;;;4332084;33;20213;-78
2021/08/19 03:51:45;;;;;;;18.87;9.32;;;;;;;;;;4332468;33;20164;-79
2021/08/19 03:54:19;;;;;;;16.23;8.70;;;;;;;;;;4332328;33;20201;-78
2021/08/19 03:56:55;;;;;;;16.17;9.00;;;;;;;;;;4333149;33;20205;-78
2021/08/19 03:59:21;;;;;;;17.87;9.43;;;;;;;;;;4331980;33;20164;-79
2021/08/19 04:01:47;;;;;;;16.67;9.18;;;;;;;;;;4332586;33;20152;-78
2021/08/19 04:04:18;;;;;;;16.52;8.20;;;;;;;;;;4331805;33;20224;-78
2021/08/19 04:06:47;;;;;;;15.43;8.00;;;;;;;;;;4332144;33;20155;-79
2021/08/19 04:09:12;;;;;;;17.80;8.50;;;;;;;;;;4331848;33;20187;-79
2021/08/19 04:11:40;;;;;;;14.13;7.55;;;;;;;;;;4331910;33;20538;-79
2021/08/19 04:14:05;;;;;;;14.70;7.90;;;;;;;;;;4332317;33;20159;-78
2021/08/19 04:16:37;;;;;;;20.50;7.82;;;;;;;;;;4331720;33;20198;-78
2021/08/19 04:19:04;;;;;;;18.08;7.57;;;;;;;;;;4332311;33;20502;-79
2021/08/19 04:21:30;;;;;;;13.30;8.10;;;;;;;;;;4331689;33;20188;-79
2021/08/19 04:23:55;;;;;;;13.98;8.00;;;;;;;;;;4331696;33;20159;-80
2021/08/19 04:26:20;;;;;;;18.77;7.90;;;;;;;;;;4334528;33;20222;-78
2021/08/19 04:28:51;;;;;;;16.33;7.60;;;;;;;;;;4334803;33;20163;-77
2021/08/19 04:31:16;;;;;;;15.65;7.03;;;;;;;;;;4335381;33;20159;-77
2021/08/19 04:33:44;;;;;;;14.68;8.82;;;;;;;;;;4334444;33;20193;-78
2021/08/19 04:36:10;;;;;;;13.27;8.30;;;;;;;;;;4334917;33;20159;-78
2021/08/19 04:38:36;;;;;;;17.35;8.10;;;;;;;;;;4334195;33;20209;-78
2021/08/19 04:41:01;;;;;;;13.43;7.75;;;;;;;;;;4334590;32;20174;-78
2021/08/19 04:43:28;;;;;;;17.05;8.30;;;;;;;;;;4361815;32;20230;-78
2021/08/19 04:46:01;;;;;;;14.77;7.97;;;;;;;;;;4363531;32;20155;-78
2021/08/19 04:48:27;;;;;;;16.45;8.80;;;;;;;;;;4346806;32;20608;-78
2021/08/19 04:50:53;;;;;;;14.43;8.30;;;;;;;;;;4346597;33;20219;-77
2021/08/19 04:53:19;;;;;;;14.98;8.15;;;;;;;;;;4346574;33;20190;-78
2021/08/19 04:55:44;;;;;;;11.73;7.45;;;;;;;;;;4357073;33;20218;-78
2021/08/19 04:58:12;;;;;;;13.15;7.35;;;;;;;;;;4361231;32;20634;-77
2021/08/19 05:00:45;;;;;;;10.80;8.00;;;;;;;;;;4361715;32;20196;-78
2021/08/19 05:03:12;;;;;;;10.50;7.57;;;;;;;;;;4361769;32;20212;-78
2021/08/19 05:05:40;;;;;;;10.82;8.18;;;;;;;;;;4360618;32;20171;-77
2021/08/19 05:08:05;;;;;;;10.20;7.10;;;;;;;;;;4349332;33;20193;-78
2021/08/19 05:10:31;;;;;;;13.68;6.87;;;;;;;;;;4348834;33;20171;-77
2021/08/19 05:13:05;;;;;;;12.90;7.30;;;;;;;;;;4349100;33;20158;-77
2021/08/19 05:15:30;;;;;;;10.60;7.05;;;;;;;;;;4349103;33;20200;-77
2021/08/19 05:17:56;;;;;;;10.55;6.78;;;;;;;;;;4348801;33;20561;-78
2021/08/19 05:20:21;;;;;;;10.43;7.12;;;;;;;;;;4348959;33;20605;-77
2021/08/19 05:22:46;;;;;;;8.90;5.87;;;;;;;;;;4348467;33;20185;-77
2021/08/19 05:25:14;;;;;;;11.25;6.12;;;;;;;;;;4348681;33;20478;-79
2021/08/19 05:27:40;;;;;;;8.63;5.97;;;;;;;;;;4348772;33;20232;-78
2021/08/19 05:30:05;;;;;;;8.48;5.93;;;;;;;;;;4348473;33;20221;-79
2021/08/19 05:32:31;;;;;;;8.35;5.60;;;;;;;;;;4348370;32;20155;-77
2021/08/19 05:34:56;;;;;;;9.68;5.82;;;;;;;;;;4345829;33;20246;-80
2021/08/19 05:37:22;;;;;;;8.95;6.25;;;;;;;;;;4345189;33;20461;-79
2021/08/19 05:39:54;;;;;;;10.43;5.72;;;;;;;;;;4341142;33;20607;-78
2021/08/19 05:42:20;;;;;;;9.05;5.75;;;;;;;;;;4358309;33;20166;-79
2021/08/19 05:44:45;;;;;;;7.87;6.07;;;;;;;;;;4352631;33;20189;-78
2021/08/19 05:47:13;;;;;;;10.82;5.57;;;;;;;;;;4370254;32;20264;-79
2021/08/19 05:49:41;;;;;;;9.13;5.28;;;;;;;;;;4354822;32;20190;-77
2021/08/19 05:52:07;;;;;;;9.30;6.53;;;;;;;;;;4330352;33;20164;-78
2021/08/19 05:54:34;;;;;;;9.48;5.60;;;;;;;;;;4331545;33;20194;-78
2021/08/19 05:57:01;;;;;;;8.60;6.10;;;;;;;;;;4330899;33;20223;-78
2021/08/19 05:59:55;;;;;;;9.23;5.97;;;;;;;;;;4330984;33;20164;-78
2021/08/19 06:02:20;;;;;;;8.98;5.85;;;;;;;;;;4332181;33;20179;-77
2021/08/19 06:04:45;;;;;;;10.88;5.47;;;;;;;;;;4331457;33;20447;-77
2021/08/19 06:07:28;;;;;;;10.93;6.03;;;;;;;;;;4330870;33;20227;-79
2021/08/19 06:09:54;;;;;;;7.65;5.47;;;;;;;;;;4331862;33;20223;-78
2021/08/19 06:12:19;;;;;;;11.05;7.35;;;;;;;;;;4331011;33;20175;-79
2021/08/19 06:14:45;;;;;;;7.87;5.97;;;;;;;;;;4343646;33;20195;-79
2021/08/19 06:17:30;;;;;;;10.30;6.25;;;;;;;;;;4332133;33;20184;-78
2021/08/19 06:20:11;;;;;;;8.57;5.95;;;;;;;;;;4332945;33;20156;-77
2021/08/19 06:22:37;;;;;;;10.65;5.82;;;;;;;;;;4318746;33;20237;-76
2021/08/19 06:25:02;;;;;;;10.18;6.45;;;;;;;;;;4318456;33;20164;-78
2021/08/19 06:27:28;;;;;;;12.30;7.07;;;;;;;;;;4318278;33;20676;-78
2021/08/19 06:29:53;;;;;;;12.30;8.52;;;;;;;;;;4318910;33;20234;-78
2021/08/19 06:32:18;;;;;;;12.25;7.12;;;;;;;;;;4318575;33;20597;-77
2021/08/19 06:34:44;;;;;;;13.98;7.55;;;;;;;;;;4318204;33;20238;-79
2021/08/19 06:37:09;;;;;;;14.63;7.75;;;;;;;;;;4318074;33;20176;-78
2021/08/19 06:39:34;;;;;;;10.38;8.20;;;;;;;;;;4318604;33;20222;-79
2021/08/19 06:42:00;;;;;;;11.82;6.70;;;;;;;;;;4318069;33;20197;-77
2021/08/19 06:44:25;;;;;;;9.85;6.85;;;;;;;;;;4318264;33;20168;-77
2021/08/19 06:46:50;;;;;;;13.82;7.15;;;;;;;;;;4318170;33;20230;-78
2021/08/19 06:49:16;;;;;;;11.98;7.60;;;;;;;;;;4318044;33;20198;-78
2021/08/19 06:51:41;;;;;;;12.80;7.55;;;;;;;;;;4318386;33;20219;-78
2021/08/19 06:54:06;;;;;;;12.82;8.15;;;;;;;;;;4317999;33;20594;-78
2021/08/19 06:56:32;;;;;;;12.68;7.62;;;;;;;;;;4317845;33;20294;-78
2021/08/19 06:59:03;;;;;;;14.05;8.85;;;;;;;;;;4318415;33;20226;-77
2021/08/19 07:01:36;;;;;;;10.52;7.30;;;;;;;;;;4318556;33;20164;-77
2021/08/19 07:04:01;;;;;;;13.93;8.02;;;;;;;;;;4330346;33;20159;-78
2021/08/19 07:06:36;;;;;;;12.18;7.47;;;;;;;;;;4330240;33;20176;-77
2021/08/19 07:09:12;;;;;;;11.48;8.52;;;;;;;;;;4330332;33;20589;-77
2021/08/19 07:11:38;;;;;;;14.35;7.50;;;;;;;;;;4354407;33;20269;-78
2021/08/19 07:14:03;;;;;;;14.18;8.07;;;;;;;;;;4329840;33;20164;-77
2021/08/19 07:16:28;;;;;;;16.12;8.35;;;;;;;;;;4329592;33;20171;-77
2021/08/19 07:19:22;;;;;;;14.75;8.27;;;;;;;;;;4330191;33;20517;-77
2021/08/19 07:21:53;;;;;;;12.48;8.30;;;;;;;;;;4354476;33;20163;-78
2021/08/19 07:24:18;;;;;;;11.23;7.95;;;;;;;;;;4330233;33;20199;-77
2021/08/19 07:26:44;;;;;;;13.90;8.82;;;;;;;;;;4330255;33;20563;-77
2021/08/19 07:30:21;;;;;;;;;;;;;;;;;;;;;
2021/08/19 07:32:20;;;;;;;13.55;8.73;;;;;;;;;;4309128;33;20194;-77
2021/08/19 07:34:45;;;;;;;12.23;8.30;;;;;;;;;;4300090;33;20176;-79
2021/08/19 07:37:20;;;;;;;11.65;8.70;;;;;;;;;;4320476;33;20632;-77
2021/08/19 07:39:45;;;;;;;13.00;8.63;;;;;;;;;;4329963;33;20569;-78
2021/08/19 07:42:20;;;;;;;;;;;;;;;;;;;;;
2021/08/19 07:45:09;;;;;;;13.45;8.05;;;;;;;;;;4330927;33;20159;-77
2021/08/19 07:47:34;;;;;;;14.15;8.40;;;;;;;;;;4342231;33;20163;-79
2021/08/19 07:50:00;;;;;;;13.52;7.62;;;;;;;;;;4329784;33;20581;-78
2021/08/19 07:52:25;;;;;;;12.20;7.57;;;;;;;;;;4329602;33;20189;-78
2021/08/19 07:54:53;;;;;;;11.73;8.02;;;;;;;;;;4330742;33;20168;-77
2021/08/19 07:57:21;;;;;;;12.25;8.80;;;;;;;;;;4329368;33;20637;-78
2021/08/19 07:59:46;;;;;;;13.98;8.38;;;;;;;;;;4329402;33;20171;-78
2021/08/19 08:02:13;;;;;;;11.05;7.82;;;;;;;;;;4329767;33;20693;-77
2021/08/19 08:04:38;;;;;;;12.02;7.30;;;;;;;;;;4329910;33;20671;-79
2021/08/19 08:07:04;;;;;;;13.38;7.62;;;;;;;;;;4329401;33;20231;-78
2021/08/19 08:09:31;;;;;;;11.50;7.53;;;;;;;;;;4329475;33;20218;-79
2021/08/19 08:11:59;;;;;;;10.88;7.82;;;;;;;;;;4329480;33;20206;-78
2021/08/19 08:14:25;;;;;;;12.40;6.82;;;;;;;;;;4329606;33;20198;-77
2021/08/19 08:16:56;;;;;;;8.98;7.25;;;;;;;;;;4329275;33;20664;-77
2021/08/19 08:19:21;;;;;;;14.45;7.80;;;;;;;;;;4330303;33;20156;-79
2021/08/19 08:21:46;;;;;;;13.32;6.97;;;;;;;;;;4329748;33;20164;-78
2021/08/19 08:24:12;;;;;;;10.88;7.68;;;;;;;;;;4329438;33;20176;-78
2021/08/19 08:26:53;;;;;;;11.65;7.65;;;;;;;;;;4353912;33;20160;-78
2021/08/19 08:29:19;;;;;;;12.15;7.25;;;;;;;;;;4330192;33;20677;-78
2021/08/19 08:31:45;;;;;;;13.52;8.60;;;;;;;;;;4329656;33;20152;-77
2021/08/19 08:34:11;;;;;;;12.00;8.02;;;;;;;;;;4330886;33;20172;-78
2021/08/19 08:36:37;;;;;;;14.25;7.93;;;;;;;;;;4331915;33;20184;-78
2021/08/19 08:39:06;;;;;;;9.63;7.20;;;;;;;;;;4331832;33;20190;-78
2021/08/19 08:41:34;;;;;;;11.77;7.60;;;;;;;;;;4331990;33;20585;-78
2021/08/19 08:44:28;;;;;;;10.55;7.07;;;;;;;;;;4345058;33;20139;-78
2021/08/19 08:46:49;;;;;;;10.55;6.53;;;;;;;;;;4344959;33;20247;-78
2021/08/19 08:49:14;;;;;;;10.70;6.72;;;;;;;;;;4331520;33;20222;-77
2021/08/19 08:51:51;;;;;;;10.25;6.60;;;;;;;;;;4331895;33;20618;-77
2021/08/19 08:54:17;;;;;;;10.75;7.47;;;;;;;;;;4331709;33;20151;-78
2021/08/19 08:56:42;;;;;;;14.07;6.75;;;;;;;;;;4331795;33;20194;-79
2021/08/19 08:59:13;;;;;;;12.95;7.45;;;;;;;;;;4331557;33;20270;-77
2021/08/19 09:01:39;;;;;;;11.02;6.68;;;;;;;;;;4331395;33;20206;-76
2021/08/19 09:04:04;;;;;;;10.55;6.75;;;;;;;;;;4356580;32;20214;-78
2021/08/19 09:06:43;;;;;;;10.90;6.62;;;;;;;;;;4345786;33;20128;-78
2021/08/19 09:09:22;;;;;;;11.98;6.85;;;;;;;;;;4332289;33;20209;-77
2021/08/19 09:12:34;;;;;;;9.75;7.30;;;;;;;;;;4332132;33;20163;-78
2021/08/19 09:14:42;;;;;;;10.25;6.90;;;;;;;;;;4339854;33;20172;-77
2021/08/19 09:17:08;;;;;;;12.48;7.15;;;;;;;;;;4333993;33;20254;-77
2021/08/19 09:19:34;;;;;;;12.60;7.18;;;;;;;;;;4334128;33;20168;-76
2021/08/19 09:22:00;;;;;;;14.02;8.07;;;;;;;;;;4334354;33;20159;-78
2021/08/19 09:24:26;;;;;;;14.98;8.02;;;;;;;;;;4333767;33;20174;-79
2021/08/19 09:26:53;;;;;;;11.07;7.40;;;;;;;;;;4334650;33;20247;-77
2021/08/19 09:29:19;;;;;;;10.70;7.00;;;;;;;;;;4334348;33;20654;-71
2021/08/19 09:31:48;;;;;;;11.18;6.60;;;;;;;;;;4334022;33;20232;-75
2021/08/19 09:34:23;;;;;;;11.88;6.57;;;;;;;;;;4348242;33;20155;-77
2021/08/19 09:37:04;;;;;;;10.75;6.80;;;;;;;;;;4334450;33;20303;-79
2021/08/19 09:39:36;;;;;;;8.73;6.32;;;;;;;;;;4333981;33;20233;-77
2021/08/19 09:42:04;;;;;;;10.60;7.57;;;;;;;;;;4358368;32;20217;-77
2021/08/19 09:44:31;;;;;;;8.63;6.28;;;;;;;;;;4333662;33;20163;-77
2021/08/19 09:46:59;;;;;;;12.43;6.57;;;;;;;;;;4333475;33;20643;-78
2021/08/19 09:49:44;;;;;;;10.23;7.43;;;;;;;;;;4333332;33;20194;-78
2021/08/19 09:52:13;;;;;;;8.80;7.03;;;;;;;;;;4334018;33;20158;-78
2021/08/19 09:54:39;;;;;;;8.88;5.85;;;;;;;;;;4333903;33;20232;-79
2021/08/19 09:57:08;;;;;;;9.52;6.62;;;;;;;;;;4333537;33;20483;-78
2021/08/19 09:59:36;;;;;;;11.70;7.60;;;;;;;;;;4333462;33;20175;-77
2021/08/19 10:02:02;;;;;;;11.38;7.32;;;;;;;;;;4333369;33;20170;-79
2021/08/19 10:04:33;;;;;;;12.15;7.40;;;;;;;;;;4333706;33;20478;-78
2021/08/19 10:06:59;;;;;;;7.87;6.87;;;;;;;;;;4333846;33;20221;-78
2021/08/19 10:09:30;;;;;;;10.57;7.03;;;;;;;;;;4333761;33;20163;-77
2021/08/19 10:11:57;;;;;;;10.43;6.62;;;;;;;;;;4333291;33;20159;-79
2021/08/19 10:14:46;;;;;;;9.82;6.43;;;;;;;;;;4333127;33;20163;-78
2021/08/19 10:17:36;;;;;;;9.90;7.12;;;;;;;;;;4330974;33;20163;-78
2021/08/19 10:20:10;;;;;;;11.43;7.93;;;;;;;;;;4358143;32;20507;-78
2021/08/19 10:22:35;;;;;;;10.20;7.20;;;;;;;;;;4332650;33;20192;-79
2021/08/19 10:25:10;;;;;;;13.40;8.23;;;;;;;;;;4333016;33;20220;-78
2021/08/19 10:27:44;;;;;;;11.95;8.30;;;;;;;;;;4333076;33;20150;-79
2021/08/19 10:30:28;;;;;;;10.13;7.82;;;;;;;;;;4332904;33;20155;-76
2021/08/19 10:32:55;;;;;;;13.80;8.18;;;;;;;;;;4333391;33;20170;-78
2021/08/19 10:35:47;;;;;;;13.30;9.35;;;;;;;;;;4331358;33;20203;-78
2021/08/19 10:38:25;;;;;;;13.80;8.68;;;;;;;;;;4332976;33;20179;-78
2021/08/19 10:40:51;;;;;;;8.70;6.70;;;;;;;;;;4333114;33;20152;-78
2021/08/19 10:43:32;;;;;;;11.15;7.65;;;;;;;;;;4333044;33;20158;-78
2021/08/19 10:46:08;;;;;;;8.63;6.47;;;;;;;;;;4356960;32;20167;-78
2021/08/19 10:48:53;;;;;;;9.40;7.15;;;;;;;;;;4332700;33;20163;-78
2021/08/19 10:51:20;;;;;;;7.62;5.97;;;;;;;;;;4344891;33;20641;-77
2021/08/19 10:53:46;;;;;;;8.20;6.60;;;;;;;;;;4332604;33;20158;-78
2021/08/19 10:56:11;;;;;;;9.95;7.15;;;;;;;;;;4332676;33;20194;-78
2021/08/19 10:58:37;;;;;;;9.73;7.15;;;;;;;;;;4332344;33;20527;-79
2021/08/19 11:01:17;;;;;;;10.40;7.25;;;;;;;;;;4332555;33;20511;-78
2021/08/19 11:03:46;;;;;;;10.18;7.62;;;;;;;;;;4356956;32;20162;-79
2021/08/19 11:06:13;;;;;;;10.50;7.07;;;;;;;;;;4332604;33;20194;-78
2021/08/19 11:08:52;;;;;;;11.18;6.95;;;;;;;;;;4357094;32;20241;-78
2021/08/19 11:11:26;;;;;;;11.35;8.00;;;;;;;;;;4332618;33;20164;-76
2021/08/19 11:14:06;;;;;;;11.75;7.85;;;;;;;;;;4357110;32;20208;-78
2021/08/19 11:16:31;;;;;;;11.43;8.10;;;;;;;;;;4332219;33;20217;-78
2021/08/19 11:19:16;;;;;;;10.57;7.85;;;;;;;;;;4333138;33;20199;-76
2021/08/19 11:21:50;;;;;;;11.80;8.32;;;;;;;;;;4346133;33;20139;-78
2021/08/19 11:24:27;;;;;;;11.55;7.60;;;;;;;;;;4344838;33;20167;-78
2021/08/19 11:27:02;;;;;;;10.63;7.50;;;;;;;;;;4332172;33;20155;-78
2021/08/19 11:29:35;;;;;;;13.93;9.30;;;;;;;;;;4356633;32;20284;-77
2021/08/19 11:32:08;;;;;;;10.02;8.13;;;;;;;;;;4332822;33;20615;-77
2021/08/19 11:34:34;;;;;;;9.75;7.72;;;;;;;;;;4332114;33;20209;-78
2021/08/19 11:36:59;;;;;;;7.82;5.87;;;;;;;;;;4329409;33;20183;-78
2021/08/19 11:39:28;;;;;;;9.07;6.62;;;;;;;;;;4329863;33;20159;-78
2021/08/19 11:41:59;;;;;;;10.50;7.68;;;;;;;;;;4330361;33;20164;-77
2021/08/19 11:44:27;;;;;;;10.88;8.23;;;;;;;;;;4329679;33;20159;-77
2021/08/19 11:46:59;;;;;;;14.43;8.70;;;;;;;;;;4329658;33;20190;-78
2021/08/19 11:49:24;;;;;;;12.75;9.73;;;;;;;;;;4354103;32;20532;-77
2021/08/19 11:52:01;;;;;;;13.45;8.90;;;;;;;;;;4329470;33;20163;-79
2021/08/19 11:54:47;;;;;;;12.85;9.32;;;;;;;;;;4329619;33;20198;-78
2021/08/19 11:57:22;;;;;;;16.25;10.52;;;;;;;;;;4329262;33;20163;-77
2021/08/19 11:59:58;;;;;;;16.65;10.32;;;;;;;;;;4329280;33;20160;-79
2021/08/19 12:02:24;;;;;;;16.33;10.32;;;;;;;;;;4330165;33;20280;-76
2021/08/19 12:05:00;;;;;;;14.98;10.68;;;;;;;;;;4329211;33;20167;-77
2021/08/19 12:07:25;;;;;;;14.55;10.63;;;;;;;;;;4329849;33;20222;-77
2021/08/19 12:10:03;;;;;;;18.55;12.50;;;;;;;;;;4329391;33;20168;-78
2021/08/19 12:12:31;;;;;;;19.55;11.63;;;;;;;;;;4329589;33;20238;-78
2021/08/19 12:14:59;;;;;;;18.08;12.23;;;;;;;;;;4329202;33;20183;-78
2021/08/19 12:17:30;;;;;;;17.87;12.25;;;;;;;;;;4329009;33;20516;-78
2021/08/19 12:20:24;;;;;;;17.20;12.68;;;;;;;;;;4329329;33;20171;-78
2021/08/19 12:22:55;;;;;;;22.48;15.48;;;;;;;;;;4341352;33;20261;-78
2021/08/19 12:25:20;;;;;;;17.30;12.93;;;;;;;;;;4329558;33;20631;-78
2021/08/19 12:28:06;;;;;;;21.23;14.00;;;;;;;;;;4329631;33;20237;-77
2021/08/19 12:30:53;;;;;;;23.70;16.58;;;;;;;;;;4330293;33;20492;-77
2021/08/19 12:33:45;;;;;;;21.40;14.13;;;;;;;;;;4330135;33;20592;-78
2021/08/19 12:36:34;;;;;;;18.58;12.77;;;;;;;;;;4328785;33;20179;-77
2021/08/19 12:39:19;;;;;;;19.15;13.82;;;;;;;;;;4327854;33;20180;-77
2021/08/19 12:41:45;;;;;;;12.57;9.57;;;;;;;;;;4356097;33;20190;-77
2021/08/19 12:44:17;;;;;;;15.20;11.02;;;;;;;;;;4331513;33;20168;-79
2021/08/19 12:46:46;;;;;;;14.73;10.90;;;;;;;;;;4333924;33;20163;-78
2021/08/19 12:49:26;;;;;;;12.02;9.90;;;;;;;;;;4334416;33;20160;-77
2021/08/19 12:52:10;;;;;;;14.73;11.40;;;;;;;;;;4358890;32;20163;-77
2021/08/19 12:54:39;;;;;;;14.15;10.85;;;;;;;;;;4359354;32;20175;-77
2021/08/19 12:57:32;;;;;;;16.42;12.65;;;;;;;;;;4334760;33;20167;-78
2021/08/19 13:02:56;;;;;;;21.60;13.15;;;;;;;;;;4347282;33;20175;-78
2021/08/19 13:05:43;;;;;;;;;;;;;;;;;;;;;
2021/08/19 13:08:08;;;;;;;28.27;15.90;;;;;;;;;;4348385;33;20212;-77
2021/08/19 13:10:45;;;;;;;25.67;16.60;;;;;;;;;;4334803;33;20156;-77
2021/08/19 13:13:26;;;;;;;22.90;14.05;;;;;;;;;;4334239;33;20255;-78
2021/08/19 13:16:34;;;;;;;21.90;14.57;;;;;;;;;;4359882;32;20162;-77
2021/08/19 13:19:10;;;;;;;23.35;13.68;;;;;;;;;;4328411;33;20249;-76
2021/08/19 13:21:35;;;;;;;22.62;14.85;;;;;;;;;;4333932;33;20280;-76
2021/08/19 13:28:21;;;;;;;22.92;14.57;;;;;;;;;;4302065;33;20212;-77
2021/08/19 13:31:17;;;;;;;;;;;;;;;;;;;;;
2021/08/19 13:34:11;;;;;;;16.02;9.68;;;;;;;;;;4301495;33;20148;-78
2021/08/19 13:36:59;;;;;;;16.83;10.40;;;;;;;;;;4284988;33;20215;-79
2021/08/19 13:45:29;;;;;;;17.00;8.38;;;;;;;;;;4325186;33;20230;-78
2021/08/19 13:48:13;;;;;;;14.75;7.95;;;;;;;;;;4331276;33;20273;-78
2021/08/19 13:50:41;;;;;;;11.27;7.43;;;;;;;;;;4331420;33;20648;-79
2021/08/19 13:53:44;;;;;;;16.25;7.53;;;;;;;;;;4331142;33;20193;-78
2021/08/19 13:59:18;;;;;;;11.25;6.28;;;;;;;;;;4286204;33;20630;-79
2021/08/19 14:05:09;;;;;;;8.95;5.97;;;;;;;;;;4261152;33;20189;-79
2021/08/19 14:07:41;;;;;;;13.23;6.68;;;;;;;;;;4275667;33;20226;-79
2021/08/19 14:10:09;;;;;;;9.70;5.90;;;;;;;;;;4330129;33;20219;-79
2021/08/19 14:12:38;;;;;;;13.82;5.60;;;;;;;;;;4330521;33;20218;-79
2021/08/19 14:15:13;;;;;;;11.15;6.10;;;;;;;;;;4330953;33;20167;-78
2021/08/19 14:20:27;;;;;;;12.23;6.40;;;;;;;;;;4332727;33;20490;-79
2021/08/19 14:23:14;;;;;;;9.75;5.53;;;;;;;;;;4330239;33;20206;-79
2021/08/19 14:25:55;;;;;;;10.13;5.72;;;;;;;;;;4355764;32;20158;-80
2021/08/19 14:28:24;;;;;;;10.07;5.03;;;;;;;;;;4330909;33;20198;-78
2021/08/19 14:30:54;;;;;;;9.35;5.20;;;;;;;;;;4330420;33;20195;-79
2021/08/19 14:33:20;;;;;;;11.23;5.72;;;;;;;;;;4341036;33;20589;-79
2021/08/19 14:35:52;;;;;;;8.90;5.25;;;;;;;;;;4359558;32;20200;-78
2021/08/19 14:38:31;;;;;;;;;;;;;;;;;;;;;
2021/08/19 14:43:57;;;;;;;9.00;5.85;;;;;;;;;;4357737;32;20197;-80
2021/08/19 14:46:23;;;;;;;11.98;5.62;;;;;;;;;;4359659;33;20646;-79
2021/08/19 14:48:50;;;;;;;12.73;6.32;;;;;;;;;;4360044;32;20245;-79
2021/08/19 14:51:16;;;;;;;10.65;5.95;;;;;;;;;;4359900;32;20148;-80
2021/08/19 14:53:48;;;;;;;12.27;6.60;;;;;;;;;;4372089;32;20187;-79
2021/08/19 14:56:21;;;;;;;10.13;6.15;;;;;;;;;;4361316;33;20497;-80
2021/08/19 14:58:46;;;;;;;9.30;6.07;;;;;;;;;;4359307;33;20159;-78
2021/08/19 15:01:12;;;;;;;8.52;5.12;;;;;;;;;;4359468;32;20213;-78
2021/08/19 15:03:46;;;;;;;7.40;5.43;;;;;;;;;;4356575;32;20221;-79
2021/08/19 15:06:21;;;;;;;10.70;5.70;;;;;;;;;;4359664;32;20150;-79
2021/08/19 15:08:59;;;;;;;9.65;5.72;;;;;;;;;;4359309;32;20569;-79
2021/08/19 15:11:37;;;;;;;11.12;6.10;;;;;;;;;;4358224;33;20198;-78
2021/08/19 15:14:58;;;;;;;12.32;5.68;;;;;;;;;;4347267;33;20240;-78
2021/08/19 15:17:38;;;;;;;16.85;7.28;;;;;;;;;;4348662;33;20247;-78
2021/08/19 15:20:34;;;;;;;10.50;6.62;;;;;;;;;;4360242;33;20218;-79
2021/08/19 15:26:06;;;;;;;15.25;7.15;;;;;;;;;;4347325;32;20569;-77
2021/08/19 15:29:04;;;;;;;15.52;7.82;;;;;;;;;;4357070;33;20162;-78